sensor_id;sensor_type;location;lat;lon;timestamp;P1;durP1;ratioP1;P2;durP2;ratioP2
39050;SDS011;24805;55.852;37.644;2023-03-29T00:02:39;7.25;;;4.53;;
39050;SDS011;24805;55.852;37.644;2023-03-29T00:07:41;6.53;;;4.40;;
39050;SDS011;24805;55.852;37.644;2023-03-29T00:12:44;5.32;;;4.28;;
39050;SDS011;24805;55.852;37.644;2023-03-29T00:17:46;4.82;;;3.75;;
39050;SDS011;24805;55.852;37.644;2023-03-29T00:22:48;4.85;;;3.17;;
39050;SDS011;24805;55.852;37.644;2023-03-29T00:27:50;4.90;;;3.78;;
39050;SDS011;24805;55.852;37.644;2023-03-29T00:32:52;6.60;;;4.05;;
39050;SDS011;24805;55.852;37.644;2023-03-29T00:37:54;6.00;;;4.50;;
39050;SDS011;24805;55.852;37.644;2023-03-29T00:42:58;6.25;;;4.18;;
39050;SDS011;24805;55.852;37.644;2023-03-29T00:48:01;5.15;;;3.63;;
39050;SDS011;24805;55.852;37.644;2023-03-29T00:58:20;6.00;;;3.75;;
39050;SDS011;24805;55.852;37.644;2023-03-29T01:03:28;6.65;;;3.80;;
39050;SDS011;24805;55.852;37.644;2023-03-29T01:08:36;9.25;;;3.35;;
39050;SDS011;24805;55.852;37.644;2023-03-29T01:14:04;3.40;;;2.30;;
39050;SDS011;24805;55.852;37.644;2023-03-29T01:19:09;4.65;;;3.70;;
39050;SDS011;24805;55.852;37.644;2023-03-29T01:34:41;5.25;;;3.83;;
39050;SDS011;24805;55.852;37.644;2023-03-29T01:39:55;5.20;;;3.65;;
39050;SDS011;24805;55.852;37.644;2023-03-29T01:50:14;5.55;;;3.50;;
39050;SDS011;24805;55.852;37.644;2023-03-29T01:55:54;5.88;;;3.83;;
39050;SDS011;24805;55.852;37.644;2023-03-29T02:00:52;5.87;;;3.67;;
39050;SDS011;24805;55.852;37.644;2023-03-29T02:05:56;5.93;;;3.97;;
39050;SDS011;24805;55.852;37.644;2023-03-29T02:11:01;5.55;;;3.90;;
39050;SDS011;24805;55.852;37.644;2023-03-29T02:16:10;6.57;;;3.75;;
39050;SDS011;24805;55.852;37.644;2023-03-29T02:21:30;5.28;;;3.72;;
39050;SDS011;24805;55.852;37.644;2023-03-29T02:26:37;5.28;;;4.30;;
39050;SDS011;24805;55.852;37.644;2023-03-29T02:31:42;7.18;;;4.10;;
39050;SDS011;24805;55.852;37.644;2023-03-29T02:37:00;8.10;;;4.25;;
39050;SDS011;24805;55.852;37.644;2023-03-29T02:42:07;9.52;;;5.70;;
39050;SDS011;24805;55.852;37.644;2023-03-29T02:47:12;4.72;;;3.50;;
39050;SDS011;24805;55.852;37.644;2023-03-29T02:52:28;4.90;;;3.63;;
39050;SDS011;24805;55.852;37.644;2023-03-29T02:57:36;4.75;;;3.30;;
39050;SDS011;24805;55.852;37.644;2023-03-29T03:02:40;5.35;;;3.58;;
39050;SDS011;24805;55.852;37.644;2023-03-29T03:07:44;6.03;;;3.53;;
39050;SDS011;24805;55.852;37.644;2023-03-29T03:12:47;5.47;;;3.10;;
39050;SDS011;24805;55.852;37.644;2023-03-29T03:17:49;4.60;;;3.40;;
39050;SDS011;24805;55.852;37.644;2023-03-29T03:22:51;3.88;;;2.63;;
39050;SDS011;24805;55.852;37.644;2023-03-29T03:27:53;4.88;;;3.00;;
39050;SDS011;24805;55.852;37.644;2023-03-29T03:32:58;5.22;;;3.22;;
39050;SDS011;24805;55.852;37.644;2023-03-29T03:38:18;3.75;;;3.17;;
39050;SDS011;24805;55.852;37.644;2023-03-29T03:43:28;6.05;;;3.40;;
39050;SDS011;24805;55.852;37.644;2023-03-29T03:48:31;6.20;;;3.40;;
39050;SDS011;24805;55.852;37.644;2023-03-29T03:53:49;4.22;;;3.13;;
39050;SDS011;24805;55.852;37.644;2023-03-29T03:59:18;4.20;;;2.85;;
39050;SDS011;24805;55.852;37.644;2023-03-29T04:04:33;4.18;;;2.70;;
39050;SDS011;24805;55.852;37.644;2023-03-29T04:09:39;3.97;;;2.78;;
39050;SDS011;24805;55.852;37.644;2023-03-29T04:15:17;5.53;;;2.75;;
39050;SDS011;24805;55.852;37.644;2023-03-29T04:20:32;9.60;;;4.22;;
39050;SDS011;24805;55.852;37.644;2023-03-29T04:25:35;9.65;;;4.68;;
39050;SDS011;24805;55.852;37.644;2023-03-29T04:31:10;8.53;;;4.43;;
39050;SDS011;24805;55.852;37.644;2023-03-29T04:36:43;8.75;;;4.20;;
39050;SDS011;24805;55.852;37.644;2023-03-29T04:41:52;4.95;;;3.60;;
39050;SDS011;24805;55.852;37.644;2023-03-29T04:46:58;7.97;;;3.75;;
39050;SDS011;24805;55.852;37.644;2023-03-29T04:57:25;9.60;;;4.30;;
39050;SDS011;24805;55.852;37.644;2023-03-29T05:02:32;7.38;;;4.10;;
39050;SDS011;24805;55.852;37.644;2023-03-29T05:07:35;15.13;;;6.63;;
39050;SDS011;24805;55.852;37.644;2023-03-29T05:12:38;10.05;;;5.38;;
39050;SDS011;24805;55.852;37.644;2023-03-29T05:17:41;6.95;;;4.43;;
39050;SDS011;24805;55.852;37.644;2023-03-29T05:22:45;11.35;;;4.85;;
39050;SDS011;24805;55.852;37.644;2023-03-29T05:28:01;7.63;;;3.55;;
39050;SDS011;24805;55.852;37.644;2023-03-29T05:33:04;6.30;;;3.17;;
39050;SDS011;24805;55.852;37.644;2023-03-29T05:38:08;7.75;;;3.70;;
39050;SDS011;24805;55.852;37.644;2023-03-29T05:53:16;7.40;;;2.47;;
39050;SDS011;24805;55.852;37.644;2023-03-29T05:58:20;6.95;;;2.50;;
39050;SDS011;24805;55.852;37.644;2023-03-29T06:03:23;10.70;;;3.75;;
39050;SDS011;24805;55.852;37.644;2023-03-29T06:08:32;7.18;;;2.92;;
39050;SDS011;24805;55.852;37.644;2023-03-29T06:14:03;9.23;;;3.95;;
39050;SDS011;24805;55.852;37.644;2023-03-29T06:19:06;8.05;;;3.05;;
39050;SDS011;24805;55.852;37.644;2023-03-29T06:24:09;7.22;;;3.13;;
39050;SDS011;24805;55.852;37.644;2023-03-29T06:29:18;7.53;;;1.88;;
39050;SDS011;24805;55.852;37.644;2023-03-29T06:34:21;2.90;;;2.08;;
39050;SDS011;24805;55.852;37.644;2023-03-29T06:39:46;9.00;;;3.33;;
39050;SDS011;24805;55.852;37.644;2023-03-29T06:45:09;4.85;;;2.88;;
39050;SDS011;24805;55.852;37.644;2023-03-29T06:50:12;4.63;;;2.35;;
39050;SDS011;24805;55.852;37.644;2023-03-29T06:55:40;2.92;;;2.10;;
39050;SDS011;24805;55.852;37.644;2023-03-29T07:01:05;4.30;;;2.33;;
39050;SDS011;24805;55.852;37.644;2023-03-29T07:06:19;4.82;;;2.05;;
39050;SDS011;24805;55.852;37.644;2023-03-29T07:11:23;7.28;;;2.40;;
39050;SDS011;24805;55.852;37.644;2023-03-29T07:16:29;2.67;;;1.40;;
39050;SDS011;24805;55.852;37.644;2023-03-29T07:21:59;4.72;;;1.98;;
39050;SDS011;24805;55.852;37.644;2023-03-29T07:27:14;4.65;;;2.85;;
39050;SDS011;24805;55.852;37.644;2023-03-29T07:32:22;4.97;;;2.42;;
39050;SDS011;24805;55.852;37.644;2023-03-29T07:37:32;4.43;;;2.80;;
39050;SDS011;24805;55.852;37.644;2023-03-29T07:42:36;3.53;;;2.20;;
39050;SDS011;24805;55.852;37.644;2023-03-29T07:47:44;6.30;;;2.67;;
39050;SDS011;24805;55.852;37.644;2023-03-29T07:52:50;3.95;;;2.30;;
39050;SDS011;24805;55.852;37.644;2023-03-29T07:57:53;4.72;;;2.72;;
39050;SDS011;24805;55.852;37.644;2023-03-29T08:02:55;6.80;;;2.17;;
39050;SDS011;24805;55.852;37.644;2023-03-29T08:07:58;2.78;;;1.63;;
39050;SDS011;24805;55.852;37.644;2023-03-29T08:13:20;3.20;;;2.38;;
39050;SDS011;24805;55.852;37.644;2023-03-29T08:18:42;4.10;;;2.40;;
39050;SDS011;24805;55.852;37.644;2023-03-29T08:23:45;5.32;;;2.70;;
39050;SDS011;24805;55.852;37.644;2023-03-29T08:28:54;3.90;;;2.45;;
39050;SDS011;24805;55.852;37.644;2023-03-29T08:34:00;3.55;;;2.55;;
39050;SDS011;24805;55.852;37.644;2023-03-29T08:39:31;3.97;;;2.22;;
39050;SDS011;24805;55.852;37.644;2023-03-29T08:45:06;6.65;;;3.08;;
39050;SDS011;24805;55.852;37.644;2023-03-29T08:50:19;5.85;;;2.95;;
39050;SDS011;24805;55.852;37.644;2023-03-29T08:55:37;5.40;;;3.20;;
39050;SDS011;24805;55.852;37.644;2023-03-29T09:01:16;5.70;;;2.83;;
39050;SDS011;24805;55.852;37.644;2023-03-29T09:06:29;9.10;;;4.07;;
39050;SDS011;24805;55.852;37.644;2023-03-29T09:27:41;5.38;;;3.25;;
39050;SDS011;24805;55.852;37.644;2023-03-29T09:33:04;4.40;;;2.58;;
39050;SDS011;24805;55.852;37.644;2023-03-29T09:38:46;4.78;;;2.85;;
39050;SDS011;24805;55.852;37.644;2023-03-29T09:43:53;6.05;;;3.53;;
39050;SDS011;24805;55.852;37.644;2023-03-29T09:49:00;8.10;;;4.85;;
39050;SDS011;24805;55.852;37.644;2023-03-29T09:54:08;6.30;;;3.60;;
39050;SDS011;24805;55.852;37.644;2023-03-29T09:59:31;9.43;;;3.15;;
39050;SDS011;24805;55.852;37.644;2023-03-29T10:04:34;10.55;;;4.90;;
39050;SDS011;24805;55.852;37.644;2023-03-29T10:09:37;9.48;;;4.90;;
39050;SDS011;24805;55.852;37.644;2023-03-29T10:14:52;11.15;;;4.80;;
39050;SDS011;24805;55.852;37.644;2023-03-29T10:19:55;5.10;;;2.75;;
39050;SDS011;24805;55.852;37.644;2023-03-29T10:25:00;8.75;;;4.70;;
39050;SDS011;24805;55.852;37.644;2023-03-29T10:30:07;6.75;;;3.70;;
39050;SDS011;24805;55.852;37.644;2023-03-29T10:35:30;9.13;;;3.90;;
39050;SDS011;24805;55.852;37.644;2023-03-29T10:40:40;6.07;;;3.13;;
39050;SDS011;24805;55.852;37.644;2023-03-29T10:45:49;14.25;;;6.95;;
39050;SDS011;24805;55.852;37.644;2023-03-29T10:50:53;7.75;;;3.72;;
39050;SDS011;24805;55.852;37.644;2023-03-29T10:56:11;7.30;;;3.95;;
39050;SDS011;24805;55.852;37.644;2023-03-29T11:01:41;6.90;;;3.92;;
39050;SDS011;24805;55.852;37.644;2023-03-29T11:07:02;8.18;;;4.70;;
39050;SDS011;24805;55.852;37.644;2023-03-29T11:12:12;7.95;;;3.95;;
39050;SDS011;24805;55.852;37.644;2023-03-29T11:39:29;9.45;;;3.78;;
39050;SDS011;24805;55.852;37.644;2023-03-29T11:44:44;5.00;;;3.05;;
39050;SDS011;24805;55.852;37.644;2023-03-29T12:00:37;7.72;;;4.22;;
39050;SDS011;24805;55.852;37.644;2023-03-29T12:05:48;4.40;;;3.47;;
39050;SDS011;24805;55.852;37.644;2023-03-29T12:11:08;4.00;;;2.28;;
39050;SDS011;24805;55.852;37.644;2023-03-29T12:22:03;4.72;;;3.42;;
39050;SDS011;24805;55.852;37.644;2023-03-29T12:38:13;4.20;;;3.58;;
39050;SDS011;24805;55.852;37.644;2023-03-29T12:43:53;5.32;;;3.25;;
39050;SDS011;24805;55.852;37.644;2023-03-29T12:49:23;7.38;;;3.92;;
39050;SDS011;24805;55.852;37.644;2023-03-29T12:54:33;6.63;;;3.97;;
39050;SDS011;24805;55.852;37.644;2023-03-29T12:59:36;5.95;;;4.00;;
39050;SDS011;24805;55.852;37.644;2023-03-29T13:09:58;6.03;;;3.72;;
39050;SDS011;24805;55.852;37.644;2023-03-29T13:25:55;4.03;;;2.80;;
39050;SDS011;24805;55.852;37.644;2023-03-29T13:36:30;6.43;;;3.55;;
39050;SDS011;24805;55.852;37.644;2023-03-29T13:41:48;5.55;;;3.15;;
39050;SDS011;24805;55.852;37.644;2023-03-29T13:47:02;5.25;;;3.45;;
39050;SDS011;24805;55.852;37.644;2023-03-29T13:57:22;5.53;;;3.67;;
39050;SDS011;24805;55.852;37.644;2023-03-29T14:02:31;6.80;;;4.45;;
39050;SDS011;24805;55.852;37.644;2023-03-29T14:07:51;5.85;;;4.20;;
39050;SDS011;24805;55.852;37.644;2023-03-29T14:12:54;6.35;;;4.30;;
39050;SDS011;24805;55.852;37.644;2023-03-29T14:17:58;5.82;;;4.07;;
39050;SDS011;24805;55.852;37.644;2023-03-29T14:23:11;8.35;;;5.20;;
39050;SDS011;24805;55.852;37.644;2023-03-29T14:28:21;9.43;;;5.82;;
39050;SDS011;24805;55.852;37.644;2023-03-29T14:33:26;9.80;;;6.10;;
39050;SDS011;24805;55.852;37.644;2023-03-29T14:38:29;8.98;;;6.10;;
39050;SDS011;24805;55.852;37.644;2023-03-29T14:43:32;6.82;;;5.25;;
39050;SDS011;24805;55.852;37.644;2023-03-29T14:48:34;8.15;;;6.03;;
39050;SDS011;24805;55.852;37.644;2023-03-29T14:53:38;8.10;;;5.47;;
39050;SDS011;24805;55.852;37.644;2023-03-29T14:58:45;9.55;;;5.72;;
39050;SDS011;24805;55.852;37.644;2023-03-29T15:03:48;9.02;;;5.68;;
39050;SDS011;24805;55.852;37.644;2023-03-29T15:09:02;8.65;;;6.28;;
39050;SDS011;24805;55.852;37.644;2023-03-29T15:14:13;7.13;;;5.38;;
39050;SDS011;24805;55.852;37.644;2023-03-29T15:19:18;6.95;;;5.43;;
39050;SDS011;24805;55.852;37.644;2023-03-29T15:24:29;7.20;;;5.88;;
39050;SDS011;24805;55.852;37.644;2023-03-29T15:29:35;10.13;;;6.53;;
39050;SDS011;24805;55.852;37.644;2023-03-29T15:34:42;6.75;;;5.68;;
39050;SDS011;24805;55.852;37.644;2023-03-29T15:39:44;8.52;;;5.97;;
39050;SDS011;24805;55.852;37.644;2023-03-29T15:44:46;7.65;;;5.65;;
39050;SDS011;24805;55.852;37.644;2023-03-29T15:49:48;9.20;;;6.50;;
39050;SDS011;24805;55.852;37.644;2023-03-29T15:54:51;10.13;;;5.65;;
39050;SDS011;24805;55.852;37.644;2023-03-29T15:59:53;8.63;;;5.53;;
39050;SDS011;24805;55.852;37.644;2023-03-29T16:04:55;8.57;;;5.55;;
39050;SDS011;24805;55.852;37.644;2023-03-29T16:09:57;7.25;;;5.80;;
39050;SDS011;24805;55.852;37.644;2023-03-29T16:14:59;8.07;;;5.97;;
39050;SDS011;24805;55.852;37.644;2023-03-29T16:20:02;8.90;;;6.90;;
39050;SDS011;24805;55.852;37.644;2023-03-29T16:25:10;15.30;;;8.35;;
39050;SDS011;24805;55.852;37.644;2023-03-29T16:30:14;9.40;;;6.17;;
39050;SDS011;24805;55.852;37.644;2023-03-29T16:35:27;10.55;;;6.63;;
39050;SDS011;24805;55.852;37.644;2023-03-29T16:40:31;10.20;;;6.72;;
39050;SDS011;24805;55.852;37.644;2023-03-29T16:45:33;9.30;;;6.82;;
39050;SDS011;24805;55.852;37.644;2023-03-29T16:50:36;12.98;;;7.13;;
39050;SDS011;24805;55.852;37.644;2023-03-29T16:55:38;10.15;;;6.55;;
39050;SDS011;24805;55.852;37.644;2023-03-29T17:00:41;10.73;;;6.50;;
39050;SDS011;24805;55.852;37.644;2023-03-29T17:05:51;13.00;;;7.05;;
39050;SDS011;24805;55.852;37.644;2023-03-29T17:10:55;11.50;;;7.50;;
39050;SDS011;24805;55.852;37.644;2023-03-29T17:15:57;12.65;;;9.02;;
39050;SDS011;24805;55.852;37.644;2023-03-29T17:20:59;13.25;;;9.50;;
39050;SDS011;24805;55.852;37.644;2023-03-29T17:26:02;12.70;;;9.30;;
39050;SDS011;24805;55.852;37.644;2023-03-29T17:31:05;11.20;;;9.27;;
39050;SDS011;24805;55.852;37.644;2023-03-29T17:36:08;11.75;;;9.80;;
39050;SDS011;24805;55.852;37.644;2023-03-29T17:41:11;13.02;;;9.63;;
39050;SDS011;24805;55.852;37.644;2023-03-29T17:46:13;13.25;;;9.85;;
39050;SDS011;24805;55.852;37.644;2023-03-29T17:51:17;11.18;;;9.48;;
39050;SDS011;24805;55.852;37.644;2023-03-29T17:56:20;14.27;;;9.82;;
39050;SDS011;24805;55.852;37.644;2023-03-29T18:01:23;12.82;;;10.10;;
39050;SDS011;24805;55.852;37.644;2023-03-29T18:06:25;13.93;;;10.38;;
39050;SDS011;24805;55.852;37.644;2023-03-29T18:11:28;13.35;;;10.60;;
39050;SDS011;24805;55.852;37.644;2023-03-29T18:16:30;13.43;;;10.50;;
39050;SDS011;24805;55.852;37.644;2023-03-29T18:21:32;14.55;;;11.60;;
39050;SDS011;24805;55.852;37.644;2023-03-29T18:26:34;14.63;;;10.40;;
39050;SDS011;24805;55.852;37.644;2023-03-29T18:31:36;16.85;;;12.88;;
39050;SDS011;24805;55.852;37.644;2023-03-29T18:36:38;16.42;;;12.32;;
39050;SDS011;24805;55.852;37.644;2023-03-29T18:41:40;18.63;;;14.13;;
39050;SDS011;24805;55.852;37.644;2023-03-29T18:46:42;16.13;;;12.73;;
39050;SDS011;24805;55.852;37.644;2023-03-29T18:51:45;21.90;;;13.70;;
39050;SDS011;24805;55.852;37.644;2023-03-29T18:56:48;16.40;;;13.80;;
39050;SDS011;24805;55.852;37.644;2023-03-29T19:01:50;16.33;;;12.80;;
39050;SDS011;24805;55.852;37.644;2023-03-29T19:06:53;18.70;;;14.73;;
39050;SDS011;24805;55.852;37.644;2023-03-29T19:11:56;19.38;;;15.55;;
39050;SDS011;24805;55.852;37.644;2023-03-29T19:16:58;20.67;;;14.55;;
39050;SDS011;24805;55.852;37.644;2023-03-29T19:22:01;20.73;;;16.80;;
39050;SDS011;24805;55.852;37.644;2023-03-29T19:27:03;19.48;;;16.40;;
39050;SDS011;24805;55.852;37.644;2023-03-29T19:32:07;25.08;;;17.55;;
39050;SDS011;24805;55.852;37.644;2023-03-29T19:37:09;20.83;;;16.42;;
39050;SDS011;24805;55.852;37.644;2023-03-29T19:42:11;23.30;;;17.00;;
39050;SDS011;24805;55.852;37.644;2023-03-29T19:47:13;20.92;;;16.83;;
39050;SDS011;24805;55.852;37.644;2023-03-29T19:52:16;20.85;;;15.65;;
39050;SDS011;24805;55.852;37.644;2023-03-29T19:57:18;25.50;;;17.45;;
39050;SDS011;24805;55.852;37.644;2023-03-29T20:02:20;27.17;;;19.30;;
39050;SDS011;24805;55.852;37.644;2023-03-29T20:07:22;23.02;;;16.65;;
39050;SDS011;24805;55.852;37.644;2023-03-29T20:12:24;23.40;;;18.02;;
39050;SDS011;24805;55.852;37.644;2023-03-29T20:17:27;21.38;;;17.00;;
39050;SDS011;24805;55.852;37.644;2023-03-29T20:22:29;22.55;;;17.90;;
39050;SDS011;24805;55.852;37.644;2023-03-29T20:27:33;21.38;;;16.92;;
39050;SDS011;24805;55.852;37.644;2023-03-29T20:32:36;20.15;;;16.50;;
39050;SDS011;24805;55.852;37.644;2023-03-29T20:37:38;20.98;;;17.70;;
39050;SDS011;24805;55.852;37.644;2023-03-29T20:42:40;21.25;;;16.75;;
39050;SDS011;24805;55.852;37.644;2023-03-29T20:47:43;21.42;;;16.80;;
39050;SDS011;24805;55.852;37.644;2023-03-29T20:52:56;24.63;;;17.88;;
39050;SDS011;24805;55.852;37.644;2023-03-29T20:58:02;19.33;;;14.20;;
39050;SDS011;24805;55.852;37.644;2023-03-29T21:03:06;21.50;;;16.45;;
39050;SDS011;24805;55.852;37.644;2023-03-29T21:08:09;21.27;;;16.83;;
39050;SDS011;24805;55.852;37.644;2023-03-29T21:13:11;22.65;;;15.52;;
39050;SDS011;24805;55.852;37.644;2023-03-29T21:18:13;22.70;;;16.55;;
39050;SDS011;24805;55.852;37.644;2023-03-29T21:23:16;25.25;;;16.90;;
39050;SDS011;24805;55.852;37.644;2023-03-29T21:28:18;24.85;;;16.85;;
39050;SDS011;24805;55.852;37.644;2023-03-29T21:33:20;25.33;;;17.63;;
39050;SDS011;24805;55.852;37.644;2023-03-29T21:38:22;24.98;;;17.27;;
39050;SDS011;24805;55.852;37.644;2023-03-29T21:43:25;25.80;;;18.45;;
39050;SDS011;24805;55.852;37.644;2023-03-29T21:48:27;26.90;;;17.55;;
39050;SDS011;24805;55.852;37.644;2023-03-29T21:53:29;30.55;;;18.65;;
39050;SDS011;24805;55.852;37.644;2023-03-29T21:58:31;25.75;;;18.27;;
39050;SDS011;24805;55.852;37.644;2023-03-29T22:03:34;29.88;;;19.10;;
39050;SDS011;24805;55.852;37.644;2023-03-29T22:08:38;27.23;;;20.00;;
39050;SDS011;24805;55.852;37.644;2023-03-29T22:13:40;26.45;;;18.33;;
39050;SDS011;24805;55.852;37.644;2023-03-29T22:18:44;28.35;;;19.50;;
39050;SDS011;24805;55.852;37.644;2023-03-29T22:23:51;30.73;;;18.83;;
39050;SDS011;24805;55.852;37.644;2023-03-29T22:28:55;25.38;;;16.52;;
39050;SDS011;24805;55.852;37.644;2023-03-29T22:33:58;28.67;;;19.33;;
39050;SDS011;24805;55.852;37.644;2023-03-29T22:39:01;28.00;;;19.40;;
39050;SDS011;24805;55.852;37.644;2023-03-29T22:44:03;27.30;;;19.23;;
39050;SDS011;24805;55.852;37.644;2023-03-29T22:49:06;26.15;;;19.02;;
39050;SDS011;24805;55.852;37.644;2023-03-29T22:54:08;40.53;;;25.50;;
39050;SDS011;24805;55.852;37.644;2023-03-29T22:59:10;27.50;;;19.33;;
39050;SDS011;24805;55.852;37.644;2023-03-29T23:04:13;25.13;;;18.48;;
39050;SDS011;24805;55.852;37.644;2023-03-29T23:09:15;41.80;;;29.50;;
39050;SDS011;24805;55.852;37.644;2023-03-29T23:14:17;33.40;;;21.33;;
39050;SDS011;24805;55.852;37.644;2023-03-29T23:19:19;25.10;;;18.77;;
39050;SDS011;24805;55.852;37.644;2023-03-29T23:24:21;28.02;;;19.98;;
39050;SDS011;24805;55.852;37.644;2023-03-29T23:29:24;28.48;;;20.75;;
39050;SDS011;24805;55.852;37.644;2023-03-29T23:34:26;23.40;;;16.52;;
39050;SDS011;24805;55.852;37.644;2023-03-29T23:39:29;23.55;;;18.05;;
39050;SDS011;24805;55.852;37.644;2023-03-29T23:44:31;28.33;;;19.88;;
39050;SDS011;24805;55.852;37.644;2023-03-29T23:49:33;28.30;;;19.95;;
39050;SDS011;24805;55.852;37.644;2023-03-29T23:54:36;27.13;;;19.70;;
39050;SDS011;24805;55.852;37.644;2023-03-29T23:59:38;27.15;;;19.80;;
